sensor_id;sensor_type;location;lat;lon;timestamp;pressure;altitude;pressure_sealevel;temperature;humidity
8047;BME280;67150;42.516;23.358;2023-02-20T00:02:16;88626.63;;;10.36;51.12
8047;BME280;67150;42.516;23.358;2023-02-20T00:05:03;88637.38;;;10.27;51.29
8047;BME280;67150;42.516;23.358;2023-02-20T00:07:49;88639.75;;;10.29;51.19
8047;BME280;67150;42.516;23.358;2023-02-20T00:10:35;88633.09;;;10.28;51.29
8047;BME280;67150;42.516;23.358;2023-02-20T00:13:21;88635.53;;;10.29;51.41
8047;BME280;67150;42.516;23.358;2023-02-20T00:16:07;88632.53;;;10.24;51.32
8047;BME280;67150;42.516;23.358;2023-02-20T00:18:53;88640.09;;;10.24;51.40
8047;BME280;67150;42.516;23.358;2023-02-20T00:21:45;88645.44;;;10.20;51.23
8047;BME280;67150;42.516;23.358;2023-02-20T00:24:31;88639.75;;;10.29;51.27
8047;BME280;67150;42.516;23.358;2023-02-20T00:27:18;88648.00;;;10.31;50.97
8047;BME280;67150;42.516;23.358;2023-02-20T00:30:04;88645.59;;;10.29;51.29
8047;BME280;67150;42.516;23.358;2023-02-20T00:32:52;88622.28;;;10.15;51.16
8047;BME280;67150;42.516;23.358;2023-02-20T00:35:38;88640.03;;;10.37;50.86
8047;BME280;67150;42.516;23.358;2023-02-20T00:38:26;88648.22;;;10.28;51.20
8047;BME280;67150;42.516;23.358;2023-02-20T00:41:13;88632.31;;;10.27;51.25
8047;BME280;67150;42.516;23.358;2023-02-20T00:44:00;88647.44;;;10.27;51.11
8047;BME280;67150;42.516;23.358;2023-02-20T00:46:46;88633.09;;;10.28;51.31
8047;BME280;67150;42.516;23.358;2023-02-20T00:49:32;88640.88;;;10.25;51.20
8047;BME280;67150;42.516;23.358;2023-02-20T00:52:18;88648.22;;;10.28;51.21
8047;BME280;67150;42.516;23.358;2023-02-20T00:55:05;88647.53;;;10.26;51.28
8047;BME280;67150;42.516;23.358;2023-02-20T00:57:51;88647.72;;;10.23;51.29
8047;BME280;67150;42.516;23.358;2023-02-20T01:00:38;88653.03;;;10.31;50.93
8047;BME280;67150;42.516;23.358;2023-02-20T01:03:24;88652.56;;;10.26;51.17
8047;BME280;67150;42.516;23.358;2023-02-20T01:06:10;88626.28;;;10.30;50.86
8047;BME280;67150;42.516;23.358;2023-02-20T01:08:56;88633.91;;;10.28;51.01
8047;BME280;67150;42.516;23.358;2023-02-20T01:11:44;88628.50;;;10.22;51.23
8047;BME280;67150;42.516;23.358;2023-02-20T01:14:31;88638.56;;;10.22;51.17
8047;BME280;67150;42.516;23.358;2023-02-20T01:17:17;88636.50;;;10.16;51.32
8047;BME280;67150;42.516;23.358;2023-02-20T01:20:03;88638.19;;;10.15;51.49
8047;BME280;67150;42.516;23.358;2023-02-20T01:22:48;88664.34;;;10.25;51.07
8047;BME280;67150;42.516;23.358;2023-02-20T01:25:34;88663.84;;;10.33;50.98
8047;BME280;67150;42.516;23.358;2023-02-20T01:28:21;88661.81;;;10.25;51.07
8047;BME280;67150;42.516;23.358;2023-02-20T01:31:07;88680.66;;;10.20;51.26
8047;BME280;67150;42.516;23.358;2023-02-20T01:33:53;88667.59;;;10.15;51.25
8047;BME280;67150;42.516;23.358;2023-02-20T01:36:44;88666.59;;;10.17;51.40
8047;BME280;67150;42.516;23.358;2023-02-20T01:39:30;88683.59;;;10.13;51.07
8047;BME280;67150;42.516;23.358;2023-02-20T01:42:19;88663.94;;;10.19;51.19
8047;BME280;67150;42.516;23.358;2023-02-20T01:45:24;88670.81;;;10.17;51.44
8047;BME280;67150;42.516;23.358;2023-02-20T01:48:20;88679.16;;;10.17;51.65
8047;BME280;67150;42.516;23.358;2023-02-20T01:51:06;88679.28;;;10.16;51.41
8047;BME280;67150;42.516;23.358;2023-02-20T01:53:51;88689.34;;;10.16;51.29
8047;BME280;67150;42.516;23.358;2023-02-20T01:56:37;88678.47;;;10.15;51.23
8047;BME280;67150;42.516;23.358;2023-02-20T01:59:24;88686.84;;;10.16;51.56
8047;BME280;67150;42.516;23.358;2023-02-20T02:02:14;88676.78;;;10.16;51.30
8047;BME280;67150;42.516;23.358;2023-02-20T02:05:00;88684.72;;;10.09;51.59
8047;BME280;67150;42.516;23.358;2023-02-20T02:07:46;88701.50;;;10.22;51.33
8047;BME280;67150;42.516;23.358;2023-02-20T02:10:35;88701.72;;;10.19;51.54
8047;BME280;67150;42.516;23.358;2023-02-20T02:13:23;88700.00;;;10.19;51.43
8047;BME280;67150;42.516;23.358;2023-02-20T02:16:16;88694.47;;;10.27;51.27
8047;BME280;67150;42.516;23.358;2023-02-20T02:19:18;88692.97;;;10.24;51.57
8047;BME280;67150;42.516;23.358;2023-02-20T02:22:34;88697.50;;;10.19;51.68
8047;BME280;67150;42.516;23.358;2023-02-20T02:25:36;88706.72;;;10.31;51.26
8047;BME280;67150;42.516;23.358;2023-02-20T02:28:50;88696.91;;;10.16;51.70
8047;BME280;67150;42.516;23.358;2023-02-20T02:38:44;88690.75;;;10.20;51.12
8047;BME280;67150;42.516;23.358;2023-02-20T02:41:37;88685.00;;;10.05;51.68
8047;BME280;67150;42.516;23.358;2023-02-20T02:44:30;88663.97;;;10.06;51.89
8047;BME280;67150;42.516;23.358;2023-02-20T02:47:21;88678.06;;;10.08;51.54
8047;BME280;67150;42.516;23.358;2023-02-20T02:50:13;88676.44;;;10.07;51.57
8047;BME280;67150;42.516;23.358;2023-02-20T02:53:01;88677.66;;;10.15;51.29
8047;BME280;67150;42.516;23.358;2023-02-20T02:55:48;88693.38;;;10.05;51.72
8047;BME280;67150;42.516;23.358;2023-02-20T02:58:34;88672.22;;;10.08;51.54
8047;BME280;67150;42.516;23.358;2023-02-20T03:01:20;88668.41;;;10.02;51.36
8047;BME280;67150;42.516;23.358;2023-02-20T03:04:08;88695.19;;;10.03;51.27
8047;BME280;67150;42.516;23.358;2023-02-20T03:06:58;88677.16;;;10.09;51.19
8047;BME280;67150;42.516;23.358;2023-02-20T03:09:48;88698.41;;;10.18;50.93
8047;BME280;67150;42.516;23.358;2023-02-20T03:12:41;88698.41;;;10.05;51.44
8047;BME280;67150;42.516;23.358;2023-02-20T03:15:35;88679.97;;;10.05;51.51
8047;BME280;67150;42.516;23.358;2023-02-20T03:18:24;88682.28;;;10.08;51.06
8047;BME280;67150;42.516;23.358;2023-02-20T03:21:16;88697.91;;;10.00;51.21
8047;BME280;67150;42.516;23.358;2023-02-20T03:24:04;88695.19;;;10.03;51.07
8047;BME280;67150;42.516;23.358;2023-02-20T03:26:51;88687.31;;;10.08;50.96
8047;BME280;67150;42.516;23.358;2023-02-20T03:29:39;88696.28;;;9.99;51.37
8047;BME280;67150;42.516;23.358;2023-02-20T03:32:26;88709.38;;;10.04;50.96
8047;BME280;67150;42.516;23.358;2023-02-20T03:35:34;88711.69;;;10.07;51.09
8047;BME280;67150;42.516;23.358;2023-02-20T03:38:41;88696.19;;;10.01;51.28
8047;BME280;67150;42.516;23.358;2023-02-20T03:41:47;88715.72;;;9.97;50.87
8047;BME280;67150;42.516;23.358;2023-02-20T03:44:52;88747.31;;;10.01;50.66
8047;BME280;67150;42.516;23.358;2023-02-20T03:47:43;88735.25;;;9.94;51.19
8047;BME280;67150;42.516;23.358;2023-02-20T03:50:29;88730.91;;;9.96;50.94
8047;BME280;67150;42.516;23.358;2023-02-20T03:53:18;88744.72;;;9.90;51.04
8047;BME280;67150;42.516;23.358;2023-02-20T03:56:07;88746.84;;;9.96;51.03
8047;BME280;67150;42.516;23.358;2023-02-20T03:58:57;88748.53;;;9.96;50.85
8047;BME280;67150;42.516;23.358;2023-02-20T04:01:48;88753.06;;;9.91;50.83
8047;BME280;67150;42.516;23.358;2023-02-20T04:04:39;88744.50;;;9.93;50.80
8047;BME280;67150;42.516;23.358;2023-02-20T04:07:29;88725.28;;;9.92;50.70
8047;BME280;67150;42.516;23.358;2023-02-20T04:10:20;88701.66;;;9.82;50.89
8047;BME280;67150;42.516;23.358;2023-02-20T04:13:07;88716.53;;;9.85;50.96
8047;BME280;67150;42.516;23.358;2023-02-20T04:15:53;88711.09;;;9.91;50.50
8047;BME280;67150;42.516;23.358;2023-02-20T04:18:41;88691.97;;;9.89;50.44
8047;BME280;67150;42.516;23.358;2023-02-20T04:21:32;88692.88;;;9.88;50.29
8047;BME280;67150;42.516;23.358;2023-02-20T04:24:22;88698.94;;;9.85;50.23
8047;BME280;67150;42.516;23.358;2023-02-20T04:27:11;88679.00;;;9.82;50.29
8047;BME280;67150;42.516;23.358;2023-02-20T04:29:57;88664.78;;;9.81;50.14
8047;BME280;67150;42.516;23.358;2023-02-20T04:32:43;88709.41;;;9.79;50.45
8047;BME280;67150;42.516;23.358;2023-02-20T04:35:31;88730.63;;;9.75;50.34
8047;BME280;67150;42.516;23.358;2023-02-20T04:38:16;88750.84;;;9.86;50.59
8047;BME280;67150;42.516;23.358;2023-02-20T04:41:02;88779.16;;;9.77;50.93
8047;BME280;67150;42.516;23.358;2023-02-20T04:43:49;88758.31;;;9.88;50.20
8047;BME280;67150;42.516;23.358;2023-02-20T04:46:54;88772.72;;;9.86;50.62
8047;BME280;67150;42.516;23.358;2023-02-20T04:49:40;88745.72;;;9.88;49.91
8047;BME280;67150;42.516;23.358;2023-02-20T04:52:27;88793.84;;;9.83;50.38
8047;BME280;67150;42.516;23.358;2023-02-20T04:55:13;88776.31;;;9.82;50.46
8047;BME280;67150;42.516;23.358;2023-02-20T04:57:59;88792.94;;;9.84;50.32
8047;BME280;67150;42.516;23.358;2023-02-20T05:00:45;88778.22;;;9.78;49.36
8047;BME280;67150;42.516;23.358;2023-02-20T05:03:31;88807.13;;;9.85;50.25
8047;BME280;67150;42.516;23.358;2023-02-20T05:06:16;88805.72;;;9.81;50.27
8047;BME280;67150;42.516;23.358;2023-02-20T05:09:07;88805.22;;;9.76;50.41
8047;BME280;67150;42.516;23.358;2023-02-20T05:11:54;88811.13;;;9.75;49.84
8047;BME280;67150;42.516;23.358;2023-02-20T05:14:39;88799.88;;;9.81;50.11
8047;BME280;67150;42.516;23.358;2023-02-20T05:17:25;88793.91;;;9.69;50.33
8047;BME280;67150;42.516;23.358;2023-02-20T05:20:12;88802.78;;;9.75;50.28
8047;BME280;67150;42.516;23.358;2023-02-20T05:22:58;88807.03;;;9.87;49.59
8047;BME280;67150;42.516;23.358;2023-02-20T05:25:44;88796.25;;;9.85;50.14
8047;BME280;67150;42.516;23.358;2023-02-20T05:28:30;88789.41;;;9.74;50.13
8047;BME280;67150;42.516;23.358;2023-02-20T05:31:15;88809.34;;;9.77;50.45
8047;BME280;67150;42.516;23.358;2023-02-20T05:34:01;88805.22;;;9.76;50.44
8047;BME280;67150;42.516;23.358;2023-02-20T05:36:47;88805.28;;;9.75;50.32
8047;BME280;67150;42.516;23.358;2023-02-20T05:39:32;88798.28;;;9.80;50.05
8047;BME280;67150;42.516;23.358;2023-02-20T05:42:20;88789.41;;;9.74;50.31
8047;BME280;67150;42.516;23.358;2023-02-20T05:45:07;88793.03;;;9.70;50.24
8047;BME280;67150;42.516;23.358;2023-02-20T05:47:53;88786.38;;;9.69;50.13
8047;BME280;67150;42.516;23.358;2023-02-20T05:50:39;88784.78;;;9.68;50.79
8047;BME280;67150;42.516;23.358;2023-02-20T05:53:26;88804.09;;;9.68;50.79
8047;BME280;67150;42.516;23.358;2023-02-20T05:56:12;88817.47;;;9.68;50.51
8047;BME280;67150;42.516;23.358;2023-02-20T05:59:00;88837.69;;;9.67;50.55
8047;BME280;67150;42.516;23.358;2023-02-20T06:01:55;88817.97;;;9.73;50.45
8047;BME280;67150;42.516;23.358;2023-02-20T06:04:40;88856.03;;;9.69;50.43
8047;BME280;67150;42.516;23.358;2023-02-20T06:07:26;88840.13;;;9.68;50.41
8047;BME280;67150;42.516;23.358;2023-02-20T06:10:13;88856.69;;;9.58;50.88
8047;BME280;67150;42.516;23.358;2023-02-20T06:12:59;88870.13;;;9.71;50.34
8047;BME280;67150;42.516;23.358;2023-02-20T06:15:47;88870.72;;;9.75;50.20
8047;BME280;67150;42.516;23.358;2023-02-20T06:18:33;88873.34;;;9.73;50.05
8047;BME280;67150;42.516;23.358;2023-02-20T06:21:19;88866.16;;;9.67;50.26
8047;BME280;67150;42.516;23.358;2023-02-20T06:24:06;88867.06;;;9.66;50.08
8047;BME280;67150;42.516;23.358;2023-02-20T06:26:52;88882.78;;;9.70;50.02
8047;BME280;67150;42.516;23.358;2023-02-20T06:29:38;88868.38;;;9.72;49.52
8047;BME280;67150;42.516;23.358;2023-02-20T06:32:25;88898.50;;;9.73;49.44
8047;BME280;67150;42.516;23.358;2023-02-20T06:35:10;88907.31;;;9.66;49.51
8047;BME280;67150;42.516;23.358;2023-02-20T06:37:56;88888.00;;;9.67;49.75
8047;BME280;67150;42.516;23.358;2023-02-20T06:40:42;88883.41;;;9.73;49.15
8047;BME280;67150;42.516;23.358;2023-02-20T06:43:28;88895.56;;;9.67;49.44
8047;BME280;67150;42.516;23.358;2023-02-20T06:57:16;88900.78;;;9.64;48.58
8047;BME280;67150;42.516;23.358;2023-02-20T07:00:14;88907.69;;;9.60;48.36
8047;BME280;67150;42.516;23.358;2023-02-20T07:03:00;88899.88;;;9.65;48.18
8047;BME280;67150;42.516;23.358;2023-02-20T07:05:46;88910.56;;;9.68;47.76
8047;BME280;67150;42.516;23.358;2023-02-20T07:08:32;88906.81;;;9.61;48.05
8047;BME280;67150;42.516;23.358;2023-02-20T07:11:20;88913.16;;;9.67;47.65
8047;BME280;67150;42.516;23.358;2023-02-20T07:14:08;88904.41;;;9.60;48.26
8047;BME280;67150;42.516;23.358;2023-02-20T07:16:54;88908.94;;;9.67;47.78
8047;BME280;67150;42.516;23.358;2023-02-20T07:19:40;88908.75;;;9.70;47.73
8047;BME280;67150;42.516;23.358;2023-02-20T07:22:25;88912.16;;;9.69;47.77
8047;BME280;67150;42.516;23.358;2023-02-20T07:25:11;88909.25;;;9.75;47.61
8047;BME280;67150;42.516;23.358;2023-02-20T07:27:57;88910.06;;;9.76;47.52
8047;BME280;67150;42.516;23.358;2023-02-20T07:30:45;88913.91;;;9.81;47.01
8047;BME280;67150;42.516;23.358;2023-02-20T07:33:33;88917.63;;;9.76;47.67
8047;BME280;67150;42.516;23.358;2023-02-20T07:36:19;88903.34;;;9.76;47.65
8047;BME280;67150;42.516;23.358;2023-02-20T07:39:04;88874.47;;;9.82;47.45
8047;BME280;67150;42.516;23.358;2023-02-20T07:41:51;88900.91;;;9.75;47.63
8047;BME280;67150;42.516;23.358;2023-02-20T07:44:37;88898.31;;;9.76;47.87
8047;BME280;67150;42.516;23.358;2023-02-20T07:47:24;88895.28;;;9.84;47.39
8047;BME280;67150;42.516;23.358;2023-02-20T07:50:10;88910.19;;;9.87;47.70
8047;BME280;67150;42.516;23.358;2023-02-20T07:52:56;88916.91;;;10.00;46.77
8047;BME280;67150;42.516;23.358;2023-02-20T07:55:42;88908.03;;;9.95;47.75
8047;BME280;67150;42.516;23.358;2023-02-20T07:58:28;88935.59;;;9.96;47.56
8047;BME280;67150;42.516;23.358;2023-02-20T08:01:14;88916.03;;;9.87;48.13
8047;BME280;67150;42.516;23.358;2023-02-20T08:04:02;88911.44;;;9.94;47.94
8047;BME280;67150;42.516;23.358;2023-02-20T08:06:47;88907.63;;;10.01;47.54
8047;BME280;67150;42.516;23.358;2023-02-20T08:19:02;88920.13;;;9.76;48.30
8047;BME280;67150;42.516;23.358;2023-02-20T08:21:30;88910.69;;;9.79;48.57
8047;BME280;67150;42.516;23.358;2023-02-20T08:23:57;88916.03;;;9.87;48.16
8047;BME280;67150;42.516;23.358;2023-02-20T08:26:25;88931.34;;;9.84;48.13
8047;BME280;67150;42.516;23.358;2023-02-20T08:28:53;88910.31;;;9.85;48.39
8047;BME280;67150;42.516;23.358;2023-02-20T08:31:20;88956.13;;;9.90;48.35
8047;BME280;67150;42.516;23.358;2023-02-20T08:33:48;88907.22;;;9.94;47.98
8047;BME280;67150;42.516;23.358;2023-02-20T08:36:17;88924.94;;;10.05;47.41
8047;BME280;67150;42.516;23.358;2023-02-20T08:39:03;88911.09;;;10.12;47.91
8047;BME280;67150;42.516;23.358;2023-02-20T08:41:49;88940.69;;;10.09;47.58
8047;BME280;67150;42.516;23.358;2023-02-20T08:44:34;88901.59;;;10.03;48.31
8047;BME280;67150;42.516;23.358;2023-02-20T08:47:21;88930.50;;;10.10;48.19
8047;BME280;67150;42.516;23.358;2023-02-20T08:50:07;88924.22;;;10.18;47.54
8047;BME280;67150;42.516;23.358;2023-02-20T08:52:54;88917.00;;;10.11;47.79
8047;BME280;67150;42.516;23.358;2023-02-20T08:55:40;88914.13;;;10.18;47.56
8047;BME280;67150;42.516;23.358;2023-02-20T08:58:26;88907.09;;;10.23;47.79
8047;BME280;67150;42.516;23.358;2023-02-20T09:01:12;88904.56;;;10.23;47.62
8047;BME280;67150;42.516;23.358;2023-02-20T09:03:58;88908.72;;;10.24;47.64
8047;BME280;67150;42.516;23.358;2023-02-20T09:06:43;88892.16;;;10.20;47.57
8047;BME280;67150;42.516;23.358;2023-02-20T09:09:31;88903.88;;;10.21;47.96
8047;BME280;67150;42.516;23.358;2023-02-20T09:12:17;88893.47;;;10.25;47.70
8047;BME280;67150;42.516;23.358;2023-02-20T09:15:03;88897.00;;;10.23;47.73
8047;BME280;67150;42.516;23.358;2023-02-20T09:17:50;88894.41;;;10.24;47.96
8047;BME280;67150;42.516;23.358;2023-02-20T09:20:36;88903.06;;;10.20;47.98
8047;BME280;67150;42.516;23.358;2023-02-20T09:23:22;88895.59;;;10.19;47.76
8047;BME280;67150;42.516;23.358;2023-02-20T09:26:10;88910.09;;;10.28;47.99
8047;BME280;67150;42.516;23.358;2023-02-20T09:28:56;88905.69;;;10.31;47.28
8047;BME280;67150;42.516;23.358;2023-02-20T09:31:42;88907.19;;;10.34;47.60
8047;BME280;67150;42.516;23.358;2023-02-20T09:34:27;88920.91;;;10.30;47.80
8047;BME280;67150;42.516;23.358;2023-02-20T09:37:13;88927.53;;;10.31;47.67
8047;BME280;67150;42.516;23.358;2023-02-20T09:39:59;88915.88;;;10.30;47.75
8047;BME280;67150;42.516;23.358;2023-02-20T09:42:54;88920.50;;;10.36;47.72
8047;BME280;67150;42.516;23.358;2023-02-20T09:45:46;88918.00;;;10.36;47.71
8047;BME280;67150;42.516;23.358;2023-02-20T09:48:42;88934.91;;;10.34;47.89
8047;BME280;67150;42.516;23.358;2023-02-20T09:51:32;88937.53;;;10.32;47.28
8047;BME280;67150;42.516;23.358;2023-02-20T09:54:21;88924.25;;;10.30;47.83
8047;BME280;67150;42.516;23.358;2023-02-20T09:57:13;88938.72;;;10.27;47.68
8047;BME280;67150;42.516;23.358;2023-02-20T10:00:05;88918.47;;;10.28;47.49
8047;BME280;67150;42.516;23.358;2023-02-20T10:02:56;88936.53;;;10.35;47.84
8047;BME280;67150;42.516;23.358;2023-02-20T10:05:45;88944.78;;;10.37;47.51
8047;BME280;67150;42.516;23.358;2023-02-20T10:08:31;88941.25;;;10.39;47.29
8047;BME280;67150;42.516;23.358;2023-02-20T10:11:35;88942.97;;;10.39;47.85
8047;BME280;67150;42.516;23.358;2023-02-20T10:14:50;88928.47;;;10.30;47.75
8047;BME280;67150;42.516;23.358;2023-02-20T10:17:44;88929.16;;;10.32;47.73
8047;BME280;67150;42.516;23.358;2023-02-20T10:20:39;88921.22;;;10.38;47.65
8047;BME280;67150;42.516;23.358;2023-02-20T10:23:35;88919.59;;;10.37;48.04
8047;BME280;67150;42.516;23.358;2023-02-20T10:26:26;88914.53;;;10.37;47.84
8047;BME280;67150;42.516;23.358;2023-02-20T10:29:17;88904.28;;;10.40;47.67
8047;BME280;67150;42.516;23.358;2023-02-20T10:32:08;88906.81;;;10.27;48.00
8047;BME280;67150;42.516;23.358;2023-02-20T10:35:03;88891.59;;;10.41;47.68
8047;BME280;67150;42.516;23.358;2023-02-20T10:37:54;88899.56;;;10.35;47.77
8047;BME280;67150;42.516;23.358;2023-02-20T10:40:46;88902.69;;;10.39;47.44
8047;BME280;67150;42.516;23.358;2023-02-20T10:43:37;88895.63;;;10.44;47.74
8047;BME280;67150;42.516;23.358;2023-02-20T10:46:31;88887.94;;;10.45;47.77
8047;BME280;67150;42.516;23.358;2023-02-20T10:49:26;88893.59;;;10.49;47.71
8047;BME280;67150;42.516;23.358;2023-02-20T10:52:21;88865.00;;;10.50;47.63
8047;BME280;67150;42.516;23.358;2023-02-20T10:55:13;88881.13;;;10.47;47.27
8047;BME280;67150;42.516;23.358;2023-02-20T10:58:04;88866.69;;;10.37;47.16
8047;BME280;67150;42.516;23.358;2023-02-20T11:00:54;88886.25;;;10.46;47.45
8047;BME280;67150;42.516;23.358;2023-02-20T11:03:44;88861.06;;;10.46;47.70
8047;BME280;67150;42.516;23.358;2023-02-20T11:06:35;88860.97;;;10.47;47.59
8047;BME280;67150;42.516;23.358;2023-02-20T11:09:23;88867.59;;;10.48;47.18
8047;BME280;67150;42.516;23.358;2023-02-20T11:12:21;88874.25;;;10.37;47.07
8047;BME280;67150;42.516;23.358;2023-02-20T11:15:12;88861.06;;;10.46;47.61
8047;BME280;67150;42.516;23.358;2023-02-20T11:17:59;88858.53;;;10.46;47.64
8047;BME280;67150;42.516;23.358;2023-02-20T11:20:45;88860.44;;;10.42;46.97
8047;BME280;67150;42.516;23.358;2023-02-20T11:23:35;88846.47;;;10.38;47.57
8047;BME280;67150;42.516;23.358;2023-02-20T11:26:29;88847.84;;;10.42;46.69
8047;BME280;67150;42.516;23.358;2023-02-20T11:29:18;88839.19;;;10.34;46.78
8047;BME280;67150;42.516;23.358;2023-02-20T11:32:21;88849.88;;;10.50;46.31
8047;BME280;67150;42.516;23.358;2023-02-20T11:35:19;88858.13;;;10.52;46.64
8047;BME280;67150;42.516;23.358;2023-02-20T11:38:21;88858.53;;;10.46;46.87
8047;BME280;67150;42.516;23.358;2023-02-20T11:41:21;88858.84;;;10.41;46.12
8047;BME280;67150;42.516;23.358;2023-02-20T11:44:23;88865.00;;;10.50;46.96
8047;BME280;67150;42.516;23.358;2023-02-20T11:47:24;88880.19;;;10.48;46.99
8047;BME280;67150;42.516;23.358;2023-02-20T11:50:14;88886.34;;;10.57;47.23
8047;BME280;67150;42.516;23.358;2023-02-20T11:53:02;88889.78;;;10.43;47.35
8047;BME280;67150;42.516;23.358;2023-02-20T11:56:04;88892.00;;;10.48;47.49
8047;BME280;67150;42.516;23.358;2023-02-20T11:58:51;88879.63;;;10.45;47.00
8047;BME280;67150;42.516;23.358;2023-02-20T12:01:39;88898.84;;;10.46;47.24
8047;BME280;67150;42.516;23.358;2023-02-20T12:04:24;88896.91;;;10.37;47.07
8047;BME280;67150;42.516;23.358;2023-02-20T12:07:17;88903.06;;;10.45;47.30
8047;BME280;67150;42.516;23.358;2023-02-20T12:10:15;88899.63;;;10.34;47.26
8047;BME280;67150;42.516;23.358;2023-02-20T12:13:05;88907.31;;;10.45;47.41
8047;BME280;67150;42.516;23.358;2023-02-20T12:15:58;88896.53;;;10.43;47.69
8047;BME280;67150;42.516;23.358;2023-02-20T12:18:53;88904.91;;;10.56;47.48
8047;BME280;67150;42.516;23.358;2023-02-20T12:21:52;88896.13;;;10.49;47.47
8047;BME280;67150;42.516;23.358;2023-02-20T12:24:50;88901.66;;;10.54;47.53
8047;BME280;67150;42.516;23.358;2023-02-20T12:27:51;88890.88;;;10.52;47.67
8047;BME280;67150;42.516;23.358;2023-02-20T12:30:54;88901.06;;;10.50;47.49
8047;BME280;67150;42.516;23.358;2023-02-20T12:33:55;88889.56;;;10.46;48.14
8047;BME280;67150;42.516;23.358;2023-02-20T12:36:47;88896.81;;;10.51;48.02
8047;BME280;67150;42.516;23.358;2023-02-20T12:39:40;88900.25;;;10.50;48.17
8047;BME280;67150;42.516;23.358;2023-02-20T12:42:33;88897.44;;;10.54;48.00
8047;BME280;67150;42.516;23.358;2023-02-20T12:45:30;88902.09;;;10.48;48.00
8047;BME280;67150;42.516;23.358;2023-02-20T12:48:27;88883.94;;;10.43;48.20
8047;BME280;67150;42.516;23.358;2023-02-20T12:51:26;88884.34;;;10.49;48.01
8047;BME280;67150;42.516;23.358;2023-02-20T12:54:33;88872.63;;;10.61;47.99
8047;BME280;67150;42.516;23.358;2023-02-20T12:57:28;88878.78;;;10.57;48.42
8047;BME280;67150;42.516;23.358;2023-02-20T13:00:30;88883.53;;;10.49;48.10
8047;BME280;67150;42.516;23.358;2023-02-20T13:03:19;88888.97;;;10.55;47.84
8047;BME280;67150;42.516;23.358;2023-02-20T13:06:09;88892.00;;;10.48;48.20
8047;BME280;67150;42.516;23.358;2023-02-20T13:09:04;88894.63;;;10.59;48.05
8047;BME280;67150;42.516;23.358;2023-02-20T13:11:55;88898.03;;;10.58;48.33
8047;BME280;67150;42.516;23.358;2023-02-20T13:18:13;88896.41;;;10.57;48.03
8047;BME280;67150;42.516;23.358;2023-02-20T13:21:08;88892.31;;;10.56;48.01
8047;BME280;67150;42.516;23.358;2023-02-20T13:24:27;88885.56;;;10.56;48.38
8047;BME280;67150;42.516;23.358;2023-02-20T13:27:27;88887.25;;;10.56;48.05
8047;BME280;67150;42.516;23.358;2023-02-20T13:30:19;88885.34;;;10.59;47.83
8047;BME280;67150;42.516;23.358;2023-02-20T13:33:11;88901.25;;;10.60;48.10
8047;BME280;67150;42.516;23.358;2023-02-20T13:35:58;88909.91;;;10.68;47.77
8047;BME280;67150;42.516;23.358;2023-02-20T13:42:06;88917.09;;;10.62;48.02
8047;BME280;67150;42.516;23.358;2023-02-20T13:45:39;88912.53;;;10.54;48.26
8047;BME280;67150;42.516;23.358;2023-02-20T13:48:39;88914.97;;;10.56;48.13
8047;BME280;67150;42.516;23.358;2023-02-20T13:51:33;88904.91;;;10.56;48.25
8047;BME280;67150;42.516;23.358;2023-02-20T13:54:25;88914.88;;;10.57;48.05
8047;BME280;67150;42.516;23.358;2023-02-20T13:57:17;88918.81;;;10.61;48.18
8047;BME280;67150;42.516;23.358;2023-02-20T14:00:20;88912.06;;;10.62;48.10
8047;BME280;67150;42.516;23.358;2023-02-20T14:03:11;88907.31;;;10.57;48.25
8047;BME280;67150;42.516;23.358;2023-02-20T14:06:04;88910.63;;;10.58;47.70
8047;BME280;67150;42.516;23.358;2023-02-20T14:09:06;88920.22;;;10.53;48.16
8047;BME280;67150;42.516;23.358;2023-02-20T14:12:02;88919.00;;;10.46;48.14
8047;BME280;67150;42.516;23.358;2023-02-20T14:14:52;88929.25;;;10.43;48.38
8047;BME280;67150;42.516;23.358;2023-02-20T14:17:41;88920.41;;;10.37;48.37
8047;BME280;67150;42.516;23.358;2023-02-20T14:20:32;88918.28;;;10.44;47.55
8047;BME280;67150;42.516;23.358;2023-02-20T14:23:23;88907.00;;;10.37;48.10
8047;BME280;67150;42.516;23.358;2023-02-20T14:26:17;88903.56;;;10.38;48.16
8047;BME280;67150;42.516;23.358;2023-02-20T14:29:19;88898.53;;;10.38;48.16
8047;BME280;67150;42.516;23.358;2023-02-20T14:32:13;88904.59;;;10.35;48.12
8047;BME280;67150;42.516;23.358;2023-02-20T14:35:04;88913.84;;;10.35;48.15
8047;BME280;67150;42.516;23.358;2023-02-20T14:37:55;88925.13;;;10.29;48.11
8047;BME280;67150;42.516;23.358;2023-02-20T14:40:44;88926.03;;;10.28;48.46
8047;BME280;67150;42.516;23.358;2023-02-20T14:43:30;88936.72;;;10.32;48.43
8047;BME280;67150;42.516;23.358;2023-02-20T14:46:20;88933.50;;;10.30;48.45
8047;BME280;67150;42.516;23.358;2023-02-20T14:49:11;88941.94;;;10.29;48.73
8047;BME280;67150;42.516;23.358;2023-02-20T14:52:13;88938.16;;;10.36;48.49
8047;BME280;67150;42.516;23.358;2023-02-20T14:55:01;88936.91;;;10.29;48.96
8047;BME280;67150;42.516;23.358;2023-02-20T14:57:48;88936.53;;;10.35;48.52
8047;BME280;67150;42.516;23.358;2023-02-20T15:00:36;88932.78;;;10.28;48.46
8047;BME280;67150;42.516;23.358;2023-02-20T15:03:24;88941.66;;;10.33;48.49
8047;BME280;67150;42.516;23.358;2023-02-20T15:06:14;88934.41;;;10.29;48.75
8047;BME280;67150;42.516;23.358;2023-02-20T15:09:02;88932.69;;;10.29;48.55
8047;BME280;67150;42.516;23.358;2023-02-20T15:11:51;88921.09;;;10.27;48.83
8047;BME280;67150;42.516;23.358;2023-02-20T15:14:41;88923.81;;;10.24;49.14
8047;BME280;67150;42.516;23.358;2023-02-20T15:17:29;88918.78;;;10.24;48.90
8047;BME280;67150;42.516;23.358;2023-02-20T15:20:16;88913.75;;;10.24;48.93
8047;BME280;67150;42.516;23.358;2023-02-20T15:23:22;88906.06;;;10.25;49.07
8047;BME280;67150;42.516;23.358;2023-02-20T15:26:28;88900.22;;;10.25;49.06
8047;BME280;67150;42.516;23.358;2023-02-20T15:29:20;88912.94;;;10.23;49.31
8047;BME280;67150;42.516;23.358;2023-02-20T15:32:14;88919.66;;;10.23;49.03
8047;BME280;67150;42.516;23.358;2023-02-20T15:35:01;88926.41;;;10.22;48.95
8047;BME280;67150;42.516;23.358;2023-02-20T15:37:47;88913.13;;;10.20;49.51